Terminal Aerodrome Forecast
Issued by NWS

Home | Current Version | Previous Version | Text Only | Print | Product List | Glossary On
Versions: 1 2 3 4 5 6 7 8 9 10 11 12 13 14 15 16 17 18
000
FTUS46 KLOX 132300
TAFOXR
TAF
KOXR 132339Z 1400/1424 27010KT P6SM SKC
     FM140300 VRB03KT P6SM SKC
     FM141000 VRB03KT P6SM SCT008 BKN120
     FM141700 24007KT P6SM VCSH SCT008 BKN120
     FM142000 26012KT P6SM VCSH SCT090 BKN120=

USA.gov is the U.S. government's official web portal to all federal, state and local government web resources and services.